Pagrindinis puslapis
METAR-TAF:

METAR-TAF

Oro uostai :

Bamakas, Malis

platuma: 12-32N, ilguma: 007-57W, Aukštis: 380 m

Dabartinis oras

Ataskaita buvo paskelbta 44 minutes, ne 03:00 UTC
Vėjas 5 kt iš Rytų/Šiaurės Rytų
Temperatūra 29°C
Drėgmė 15%
Slėgis 1011 hPa
Matomumas 10 km arba daugiau
nėra debesų žemiau 1500 m ir nėra kamuolinių lietaus debesų

METAR: GABS 220300Z 07005KT CAVOK 29/00 Q1011 NOSIG

Laikas: 03:44 (03:44 UTC)

Prognozė

Ataskaita buvo paskelbta 4 valandos ir 14 minutes, ne 23:30 UTC
Prognozė galioja nuo 22 metu 00 UTC su 23 metu 06 UTC
Vėjas 10 kt iš Rytų
Matomumas: 8000 m
Tikimybė 30% :
Laikinai
nuo 22 metu 08 UTC su 22 metu 12 UTC
Matomumas: 4000 m
dulkės

TAF: GABS 212330Z 2200/2306 080010KT 8000 NSC PROB30 TEMPO 2208/2212 4000 DU

Orai ataskaitas ir orų prognozės (METAR, TAF).

turimą stotys yra geltonos ir raudonos taškus žemėlapyje.

Perkelti pele per norėdami pamatyti stoties vardą.

Tada spustelėkite, norėdami matyti oro stebėjimo ir prognozės.

Norėdami pakeisti žemėlapį: spustelėkite ant žalios mygtukų su juodo kryžiaus žemyn,; žalią mygtuką su brūkšneliu, jei norite nutolinti; arba žalių rodyklių gretimoms žemėlapius.


METAR-TAF: